Time;durP1;ratioP1;P1;durP2;ratioP2;P2;SDS_P1;SDS_P2;PMS_P1;PMS_P2;Temp;Humidity;BMP_temperature;BMP_pressure;BME280_temperature;BME280_humidity;BME280_pressure;Samples;Min_cycle;Max_cycle;Signal;HPM_P1;HPM_P2
2021/03/16 00:01:06;;;;;;;9.00;2.33;;;10.30;99.90;;;;;;5057343;28;20047;-68
2021/03/16 00:03:32;;;;;;;12.32;3.42;;;10.20;99.90;;;;;;5057442;28;20021;-68
2021/03/16 00:05:58;;;;;;;13.18;3.15;;;10.30;99.90;;;;;;5057237;28;20036;-68
2021/03/16 00:08:24;;;;;;;9.50;2.65;;;10.40;99.90;;;;;;5057113;28;20018;-68
2021/03/16 00:10:50;;;;;;;12.80;2.90;;;10.20;99.90;;;;;;5057258;28;20101;-68
2021/03/16 00:13:17;;;;;;;15.27;2.78;;;10.30;99.90;;;;;;5056900;28;20436;-68
2021/03/16 00:15:43;;;;;;;16.75;3.58;;;10.40;99.90;;;;;;5057334;28;20497;-68
2021/03/16 00:18:14;;;;;;;11.38;3.15;;;10.20;99.90;;;;;;5057102;28;20044;-68
2021/03/16 00:20:44;;;;;;;11.23;2.58;;;10.40;99.90;;;;;;5056938;28;20036;-68
2021/03/16 00:23:11;;;;;;;15.15;3.28;;;10.50;99.90;;;;;;5055744;28;20744;-68
2021/03/16 00:25:37;;;;;;;10.07;3.15;;;10.30;99.90;;;;;;5055800;28;20025;-68
2021/03/16 00:28:04;;;;;;;8.38;2.65;;;10.30;99.90;;;;;;5057029;28;20547;-68
2021/03/16 00:30:30;;;;;;;9.05;2.35;;;10.10;99.90;;;;;;5057060;28;20029;-68
2021/03/16 00:32:56;;;;;;;11.95;3.65;;;10.40;99.90;;;;;;5056969;28;20029;-68
2021/03/16 00:35:22;;;;;;;12.18;2.83;;;10.20;99.90;;;;;;5051918;28;20021;-68
2021/03/16 00:37:49;;;;;;;10.32;2.80;;;10.20;99.90;;;;;;5056829;28;20029;-68
2021/03/16 00:40:15;;;;;;;8.48;2.85;;;10.30;99.90;;;;;;5056746;28;20104;-68
2021/03/16 00:42:41;;;;;;;11.75;3.22;;;10.30;99.90;;;;;;5057084;28;20108;-68
2021/03/16 00:45:07;;;;;;;8.55;2.40;;;10.30;99.90;;;;;;5057041;28;20099;-68
2021/03/16 00:47:34;;;;;;;12.80;2.70;;;10.30;99.90;;;;;;5056842;28;20124;-68
2021/03/16 00:50:02;;;;;;;4.72;2.97;;;10.30;99.90;;;;;;5057034;28;20033;-68
2021/03/16 00:52:28;;;;;;;7.88;2.38;;;10.30;99.90;;;;;;5056882;28;20036;-68
2021/03/16 00:54:54;;;;;;;4.57;1.90;;;10.20;99.90;;;;;;5056629;28;20021;-68
2021/03/16 00:57:19;;;;;;;4.50;1.58;;;10.10;99.90;;;;;;5056819;28;20043;-68
2021/03/16 00:59:45;;;;;;;4.32;2.03;;;10.20;99.90;;;;;;5056517;28;20045;-68
2021/03/16 01:02:11;;;;;;;3.88;2.17;;;10.30;99.90;;;;;;5056918;28;20574;-68
2021/03/16 01:04:37;;;;;;;6.00;1.88;;;10.30;99.90;;;;;;5057100;28;20013;-68
2021/03/16 01:07:04;;;;;;;4.03;1.48;;;10.30;99.90;;;;;;5056799;28;20412;-68
2021/03/16 01:09:30;;;;;;;11.45;3.38;;;10.30;99.90;;;;;;5056643;28;20059;-68
2021/03/16 01:11:55;;;;;;;11.68;3.22;;;10.30;99.90;;;;;;5056599;28;20029;-68
2021/03/16 01:14:21;;;;;;;6.63;2.08;;;10.30;99.90;;;;;;5056874;28;20505;-68
2021/03/16 01:16:47;;;;;;;10.07;2.70;;;10.30;99.90;;;;;;5055236;28;20091;-68
2021/03/16 01:19:13;;;;;;;11.00;2.90;;;10.30;99.90;;;;;;5056627;28;20025;-68
2021/03/16 01:21:39;;;;;;;11.63;3.30;;;10.40;99.90;;;;;;5056713;28;20037;-68
2021/03/16 01:24:05;;;;;;;13.57;4.60;;;10.30;99.90;;;;;;5057818;28;20048;-68
2021/03/16 01:26:31;;;;;;;6.25;2.63;;;10.30;99.90;;;;;;5060300;28;20059;-68
2021/03/16 01:28:57;;;;;;;10.15;3.22;;;10.20;99.90;;;;;;5059967;28;20025;-68
2021/03/16 01:31:23;;;;;;;9.35;3.20;;;10.30;99.90;;;;;;5059975;28;20029;-68
2021/03/16 01:33:49;;;;;;;13.00;3.50;;;10.30;99.90;;;;;;5058111;28;20281;-68
2021/03/16 01:36:15;;;;;;;9.05;2.80;;;10.40;99.90;;;;;;5056261;28;20021;-68
2021/03/16 01:38:40;;;;;;;13.40;3.00;;;10.20;99.90;;;;;;5058282;28;20028;-68
2021/03/16 01:41:06;;;;;;;13.85;2.72;;;10.30;99.90;;;;;;5059721;28;20071;-68
2021/03/16 01:43:33;;;;;;;13.25;3.08;;;10.20;99.90;;;;;;5060044;28;20538;-68
2021/03/16 01:45:59;;;;;;;16.63;3.58;;;10.20;99.90;;;;;;5058614;28;20452;-68
2021/03/16 01:48:31;;;;;;;6.20;2.60;;;10.00;99.90;;;;;;5059788;28;20547;-68
2021/03/16 01:50:57;;;;;;;7.85;2.97;;;10.20;99.90;;;;;;5059434;28;20563;-68
2021/03/16 01:53:23;;;;;;;7.63;3.38;;;10.10;99.90;;;;;;5058318;28;20087;-68
2021/03/16 01:55:51;;;;;;;12.45;3.35;;;10.10;99.90;;;;;;5059257;28;20021;-68
2021/03/16 01:58:17;;;;;;;11.18;3.22;;;10.30;99.90;;;;;;5059516;28;20029;-68
2021/03/16 02:00:44;;;;;;;8.50;2.25;;;10.10;99.90;;;;;;5059105;28;20078;-68
2021/03/16 02:03:10;;;;;;;9.73;2.47;;;10.10;99.90;;;;;;5059442;28;20025;-68
2021/03/16 02:05:41;;;;;;;5.68;2.75;;;10.10;99.90;;;;;;5059347;28;20067;-68
2021/03/16 02:08:39;;;;;;;7.68;2.85;;;10.20;99.90;;;;;;5059501;28;20025;-68
2021/03/16 02:11:10;;;;;;;7.97;2.53;;;10.20;99.90;;;;;;5059329;28;20424;-68
2021/03/16 02:13:44;;;;;;;5.90;1.85;;;10.00;99.90;;;;;;5059334;28;20053;-68
2021/03/16 02:16:29;;;;;;;9.80;2.95;;;10.00;99.90;;;;;;5059230;28;20103;-68
2021/03/16 02:18:59;;;;;;;11.43;2.78;;;10.10;99.90;;;;;;5059421;28;20033;-68
2021/03/16 02:21:33;;;;;;;10.57;2.90;;;10.00;99.90;;;;;;5059009;28;20386;-68
2021/03/16 02:24:05;;;;;;;5.63;1.92;;;10.10;99.90;;;;;;5059097;28;20029;-68
2021/03/16 02:27:04;;;;;;;6.38;2.25;;;10.10;99.90;;;;;;5058906;28;20086;-68
2021/03/16 02:29:42;;;;;;;9.35;3.58;;;10.00;99.90;;;;;;5058725;28;20032;-68
2021/03/16 02:32:30;;;;;;;7.25;2.50;;;10.40;99.90;;;;;;5059155;28;20024;-68
2021/03/16 02:35:00;;;;;;;8.63;2.45;;;10.20;99.90;;;;;;5054867;28;20041;-68
2021/03/16 02:37:31;;;;;;;5.35;2.20;;;10.10;99.90;;;;;;5058885;28;20074;-68
2021/03/16 02:39:58;;;;;;;6.20;2.10;;;10.20;99.90;;;;;;5057360;28;20035;-68
2021/03/16 02:42:25;;;;;;;7.25;2.55;;;10.10;99.90;;;;;;5057538;28;20045;-68
2021/03/16 02:44:52;;;;;;;5.55;2.28;;;10.00;99.90;;;;;;5059094;28;20028;-68
2021/03/16 02:47:20;;;;;;;5.47;2.30;;;10.10;99.90;;;;;;5058537;28;20377;-68
2021/03/16 02:49:46;;;;;;;6.20;1.80;;;10.20;99.90;;;;;;5058514;28;20029;-68
2021/03/16 02:52:16;;;;;;;6.18;2.17;;;10.10;99.90;;;;;;5058599;28;20032;-68
2021/03/16 02:54:43;;;;;;;2.53;1.73;;;10.00;99.90;;;;;;5057227;28;20021;-68
2021/03/16 02:57:12;;;;;;;7.55;2.17;;;10.00;99.90;;;;;;5058325;28;20028;-68
2021/03/16 02:59:41;;;;;;;9.30;3.30;;;9.90;99.90;;;;;;5056665;28;20135;-68
2021/03/16 03:02:10;;;;;;;10.20;2.58;;;10.00;99.90;;;;;;5058205;28;20095;-68
2021/03/16 03:04:37;;;;;;;15.68;3.70;;;9.80;99.90;;;;;;5058660;28;20047;-68
2021/03/16 03:07:03;;;;;;;6.90;3.08;;;9.90;99.90;;;;;;5056738;28;20043;-68
2021/03/16 03:09:29;;;;;;;11.90;3.22;;;9.90;99.90;;;;;;5058003;28;20071;-68
2021/03/16 03:11:55;;;;;;;4.32;2.45;;;10.00;99.90;;;;;;5058036;28;20028;-68
2021/03/16 03:14:20;;;;;;;;;;;9.90;99.90;;;;;;5057540;28;20021;-68
2021/03/16 03:16:46;;;;;;;9.40;3.15;;;9.90;99.90;;;;;;5057367;28;19905;-68
2021/03/16 03:19:12;;;;;;;12.82;3.67;;;9.90;99.90;;;;;;5056611;28;20021;-68
2021/03/16 03:21:48;;;;;;;6.22;2.65;;;9.90;99.90;;;;;;5056669;28;20040;-68
2021/03/16 03:24:23;;;;;;;6.00;1.98;;;9.90;99.90;;;;;;5057699;28;20017;-68
2021/03/16 03:27:04;;;;;;;5.30;2.33;;;9.80;99.90;;;;;;5058078;28;20381;-68
2021/03/16 03:29:32;;;;;;;3.58;2.22;;;9.90;99.90;;;;;;5057810;28;20048;-68
2021/03/16 03:31:59;;;;;;;9.93;2.45;;;9.90;99.90;;;;;;5057871;28;20025;-68
2021/03/16 03:34:26;;;;;;;5.13;2.53;;;9.90;99.90;;;;;;5052665;28;20029;-68
2021/03/16 03:36:56;;;;;;;6.15;2.97;;;9.90;99.90;;;;;;5056525;28;20389;-68
2021/03/16 03:39:23;;;;;;;13.10;3.42;;;9.80;99.90;;;;;;5057448;28;20032;-68
2021/03/16 03:41:52;;;;;;;13.18;3.47;;;9.80;99.90;;;;;;5057591;28;20056;-68
2021/03/16 03:44:20;;;;;;;5.07;2.63;;;9.80;99.90;;;;;;5057833;28;20017;-68
2021/03/16 03:46:47;;;;;;;5.13;2.50;;;9.90;99.90;;;;;;5055795;28;20051;-68
2021/03/16 03:49:15;;;;;;;4.15;2.35;;;9.90;99.90;;;;;;5057376;28;20485;-68
2021/03/16 03:51:41;;;;;;;10.70;3.28;;;9.90;99.90;;;;;;5057425;28;20031;-69
2021/03/16 03:54:08;;;;;;;5.28;2.33;;;9.90;99.90;;;;;;5057159;28;20078;-68
2021/03/16 03:56:36;;;;;;;4.80;2.47;;;9.90;99.90;;;;;;5056105;28;20481;-68
2021/03/16 03:59:07;;;;;;;6.32;2.28;;;9.90;99.90;;;;;;5057102;28;20037;-68
2021/03/16 04:01:34;;;;;;;9.57;2.88;;;9.80;99.90;;;;;;5055998;28;20033;-68
2021/03/16 04:04:04;;;;;;;7.20;2.80;;;9.70;99.90;;;;;;5057172;28;20505;-68
2021/03/16 04:06:30;;;;;;;12.48;2.90;;;9.70;99.90;;;;;;5057551;28;20025;-68
2021/03/16 04:08:56;;;;;;;14.52;3.75;;;9.80;99.90;;;;;;5056800;28;20028;-68
2021/03/16 04:11:24;;;;;;;5.85;2.90;;;9.80;99.90;;;;;;5057354;28;20074;-68
2021/03/16 04:13:51;;;;;;;10.40;3.30;;;9.80;99.90;;;;;;5056034;28;20496;-68
2021/03/16 04:16:18;;;;;;;9.52;3.47;;;9.90;99.90;;;;;;5057494;28;20381;-68
2021/03/16 04:18:45;;;;;;;8.68;3.50;;;9.90;99.90;;;;;;5057115;28;20021;-68
2021/03/16 04:21:13;;;;;;;12.10;4.15;;;9.90;99.90;;;;;;5057069;28;20029;-68
2021/03/16 04:23:40;;;;;;;11.63;3.55;;;9.90;99.90;;;;;;5056800;28;20547;-68
2021/03/16 04:26:05;;;;;;;11.68;3.97;;;9.90;99.90;;;;;;5057449;28;20393;-68
2021/03/16 04:28:32;;;;;;;5.05;2.85;;;9.90;99.90;;;;;;5057320;28;20091;-68
2021/03/16 04:30:58;;;;;;;4.93;2.13;;;9.90;99.90;;;;;;5056833;28;20029;-68
2021/03/16 04:33:23;;;;;;;11.48;3.15;;;9.90;99.90;;;;;;5056207;28;20024;-68
2021/03/16 04:35:49;;;;;;;9.65;3.00;;;9.90;99.90;;;;;;5053217;28;20037;-68
2021/03/16 04:38:15;;;;;;;4.05;3.13;;;9.80;99.90;;;;;;5057175;28;20017;-68
2021/03/16 04:40:42;;;;;;;9.48;2.95;;;9.90;99.90;;;;;;5056472;28;20393;-68
2021/03/16 04:43:08;;;;;;;8.77;3.45;;;10.00;99.90;;;;;;5057216;28;20017;-68
2021/03/16 04:45:35;;;;;;;5.55;2.97;;;10.10;99.90;;;;;;5056928;28;20465;-68
2021/03/16 04:48:01;;;;;;;4.88;2.78;;;10.00;99.90;;;;;;5057030;28;20021;-68
2021/03/16 04:50:26;;;;;;;7.53;2.92;;;10.10;99.90;;;;;;5055580;28;20063;-68
2021/03/16 04:52:52;;;;;;;7.55;2.97;;;10.10;99.90;;;;;;5055580;28;20029;-68
2021/03/16 04:55:18;;;;;;;6.72;4.05;;;10.00;99.90;;;;;;5056515;28;20029;-68
2021/03/16 04:57:44;;;;;;;4.13;2.67;;;10.10;99.90;;;;;;5057016;28;20385;-68
2021/03/16 05:00:11;;;;;;;4.13;2.70;;;9.80;99.90;;;;;;5059820;28;20049;-68
2021/03/16 05:02:37;;;;;;;7.88;2.88;;;10.10;99.90;;;;;;5060771;28;20473;-69
2021/03/16 05:05:05;;;;;;;5.47;2.42;;;10.10;99.90;;;;;;5059215;28;20025;-68
2021/03/16 05:07:30;;;;;;;5.35;3.00;;;10.00;99.90;;;;;;5060704;28;20092;-69
2021/03/16 05:09:56;;;;;;;4.82;2.92;;;10.00;99.90;;;;;;5060176;28;20913;-68
2021/03/16 05:12:22;;;;;;;4.80;3.08;;;10.00;99.90;;;;;;5060673;28;20033;-68
2021/03/16 05:14:48;;;;;;;6.75;2.78;;;10.20;99.90;;;;;;5060397;28;20036;-68
2021/03/16 05:17:14;;;;;;;4.35;2.42;;;10.10;99.90;;;;;;5060643;28;20029;-68
2021/03/16 05:19:40;;;;;;;5.32;2.70;;;10.00;99.90;;;;;;5059031;28;20111;-68
2021/03/16 05:22:06;;;;;;;2.92;2.60;;;10.00;99.90;;;;;;5060859;28;20053;-68
2021/03/16 05:24:32;;;;;;;6.30;3.05;;;9.90;99.90;;;;;;5059839;28;20021;-68
2021/03/16 05:26:58;;;;;;;8.65;3.17;;;10.00;99.90;;;;;;5060195;28;20028;-69
2021/03/16 05:29:24;;;;;;;2.80;2.25;;;10.00;99.90;;;;;;5060054;28;20067;-68
2021/03/16 05:31:50;;;;;;;4.45;2.72;;;10.10;99.90;;;;;;5060118;28;20033;-68
2021/03/16 05:34:16;;;;;;;4.72;2.55;;;10.10;99.90;;;;;;5056766;28;20102;-68
2021/03/16 05:36:41;;;;;;;5.05;2.83;;;10.00;99.90;;;;;;5058578;28;20083;-69
2021/03/16 05:39:08;;;;;;;4.47;2.72;;;10.00;99.90;;;;;;5059781;28;20028;-68
2021/03/16 05:41:36;;;;;;;3.33;2.80;;;10.10;99.90;;;;;;5059941;28;20036;-69
2021/03/16 05:44:02;;;;;;;3.38;2.40;;;10.10;99.90;;;;;;5059828;28;20020;-68
2021/03/16 05:46:30;;;;;;;3.17;2.45;;;10.10;99.90;;;;;;5059877;28;20085;-68
2021/03/16 05:49:02;;;;;;;3.10;2.80;;;10.10;99.90;;;;;;5059785;28;20477;-68
2021/03/16 05:51:28;;;;;;;2.83;2.10;;;10.10;99.90;;;;;;5058498;28;20043;-69
2021/03/16 05:53:54;;;;;;;5.28;3.95;;;10.10;99.90;;;;;;5058078;28;20029;-68
2021/03/16 05:56:20;;;;;;;2.33;2.13;;;10.00;99.90;;;;;;5059648;28;20386;-69
2021/03/16 05:58:47;;;;;;;4.35;2.20;;;10.10;99.90;;;;;;5057935;28;20028;-68
2021/03/16 06:01:15;;;;;;;5.25;3.13;;;10.10;99.90;;;;;;5058104;28;20052;-69
2021/03/16 06:03:41;;;;;;;3.22;2.55;;;10.20;99.90;;;;;;5059348;28;20393;-68
2021/03/16 06:06:10;;;;;;;3.22;2.83;;;10.00;99.90;;;;;;5059537;28;20053;-69
2021/03/16 06:08:37;;;;;;;6.95;4.43;;;10.10;99.90;;;;;;5059004;28;20036;-74
2021/03/16 06:11:06;;;;;;;3.38;2.40;;;10.00;99.90;;;;;;5057651;28;20032;-70
2021/03/16 06:13:33;;;;;;;3.53;2.13;;;10.00;99.90;;;;;;5054291;28;20035;-69
2021/03/16 06:16:17;;;;;;;6.15;2.97;;;10.00;99.90;;;;;;5057725;28;20120;-69
2021/03/16 06:18:44;;;;;;;3.58;2.80;;;10.10;99.90;;;;;;5058984;28;20409;-69
2021/03/16 06:21:11;;;;;;;3.08;2.47;;;10.10;99.90;;;;;;5070894;28;20051;-69
2021/03/16 06:23:38;;;;;;;1.98;1.88;;;10.00;99.90;;;;;;5070920;28;20025;-69
2021/03/16 06:26:12;;;;;;;3.17;1.77;;;10.10;99.90;;;;;;5057505;28;20089;-72
2021/03/16 06:28:39;;;;;;;3.00;2.28;;;10.10;99.90;;;;;;5057437;28;20021;-69
2021/03/16 06:31:05;;;;;;;3.22;2.17;;;10.20;99.90;;;;;;5058764;28;20033;-69
2021/03/16 06:33:32;;;;;;;2.58;1.80;;;10.10;99.90;;;;;;5059083;28;20028;-68
2021/03/16 06:36:01;;;;;;;3.58;2.45;;;9.90;99.90;;;;;;5055017;28;20052;-69
2021/03/16 06:38:28;;;;;;;5.20;2.53;;;10.10;99.90;;;;;;5057653;28;20028;-69
2021/03/16 06:40:55;;;;;;;3.08;2.53;;;10.10;99.90;;;;;;5058532;28;20028;-69
2021/03/16 06:43:24;;;;;;;2.92;2.10;;;10.00;99.90;;;;;;5057289;28;20017;-69
2021/03/16 06:45:53;;;;;;;3.33;2.10;;;10.10;99.90;;;;;;5058765;28;20071;-68
2021/03/16 06:48:24;;;;;;;2.28;1.77;;;10.20;99.90;;;;;;5058850;28;20095;-69
2021/03/16 06:50:52;;;;;;;1.50;1.40;;;10.10;99.90;;;;;;5058397;28;20040;-69
2021/03/16 06:53:21;;;;;;;2.97;1.52;;;10.20;99.90;;;;;;5058423;28;20485;-69
2021/03/16 06:55:57;;;;;;;2.30;1.55;;;10.20;99.90;;;;;;5058380;28;20504;-68
2021/03/16 06:58:27;;;;;;;;;;;10.20;99.90;;;;;;5058917;28;20025;-69
2021/03/16 07:01:10;;;;;;;2.38;1.65;;;10.20;99.90;;;;;;5058174;28;20423;-69
2021/03/16 07:03:39;;;;;;;3.63;1.75;;;10.20;99.90;;;;;;5056892;28;20037;-69
2021/03/16 07:06:13;;;;;;;1.33;1.23;;;10.20;99.90;;;;;;5058338;28;20385;-68
2021/03/16 07:08:40;;;;;;;1.60;1.50;;;10.40;99.90;;;;;;5056832;28;20025;-69
2021/03/16 07:11:09;;;;;;;1.75;1.65;;;10.30;99.90;;;;;;5057155;28;20028;-69
2021/03/16 07:13:35;;;;;;;2.10;1.90;;;10.40;99.90;;;;;;5056969;28;20035;-69
2021/03/16 07:16:02;;;;;;;2.05;1.67;;;10.50;99.90;;;;;;5058128;28;20029;-69
2021/03/16 07:18:28;;;;;;;2.63;1.70;;;10.40;99.90;;;;;;5058140;28;20023;-69
2021/03/16 07:20:58;;;;;;;1.70;1.60;;;10.50;99.90;;;;;;5057260;28;20120;-68
2021/03/16 07:23:28;;;;;;;1.50;1.40;;;10.50;99.90;;;;;;5057448;28;20012;-69
2021/03/16 07:25:55;;;;;;;1.90;1.30;;;10.80;99.90;;;;;;5058280;28;20366;-69
2021/03/16 07:28:21;;;;;;;1.65;1.45;;;10.60;99.90;;;;;;5056581;28;20029;-69
2021/03/16 07:30:49;;;;;;;3.42;1.63;;;10.80;99.90;;;;;;5057790;28;20029;-69
2021/03/16 07:33:15;;;;;;;2.10;1.77;;;10.90;99.90;;;;;;5058105;28;20025;-69
2021/03/16 07:35:42;;;;;;;1.83;1.70;;;10.80;99.90;;;;;;5054387;28;20075;-69
2021/03/16 07:38:09;;;;;;;1.80;1.70;;;10.80;99.90;;;;;;5057605;28;20035;-69
2021/03/16 07:40:40;;;;;;;3.53;1.58;;;11.00;99.90;;;;;;5057372;28;20450;-69
2021/03/16 07:43:10;;;;;;;4.70;1.80;;;11.20;99.90;;;;;;5056345;28;20028;-69
2021/03/16 07:45:37;;;;;;;4.38;2.10;;;11.40;99.90;;;;;;5057711;28;20025;-69
2021/03/16 07:48:28;;;;;;;1.83;1.55;;;11.40;99.90;;;;;;5057680;28;20021;-69
2021/03/16 07:50:54;;;;;;;2.38;1.90;;;11.40;99.90;;;;;;5057254;28;20098;-69
2021/03/16 07:53:27;;;;;;;2.22;2.00;;;11.50;99.90;;;;;;5057639;28;20033;-69
2021/03/16 07:56:03;;;;;;;3.50;1.75;;;11.60;99.90;;;;;;5057539;28;20017;-69
2021/03/16 07:58:29;;;;;;;;;;;11.70;99.90;;;;;;5056461;28;20116;-69
2021/03/16 08:01:05;;;;;;;7.38;2.20;;;12.00;99.90;;;;;;5056134;28;19944;-69
2021/03/16 08:03:31;;;;;;;3.30;2.00;;;12.00;99.90;;;;;;5057450;28;20052;-69
2021/03/16 08:05:57;;;;;;;1.50;1.38;;;12.10;99.90;;;;;;5057498;28;20022;-68
2021/03/16 08:08:23;;;;;;;1.77;1.67;;;12.30;99.90;;;;;;5055687;28;20032;-69
2021/03/16 08:10:49;;;;;;;1.92;1.60;;;11.70;99.90;;;;;;5057349;28;20071;-69
2021/03/16 08:13:17;;;;;;;1.80;1.50;;;12.30;99.90;;;;;;5057223;28;21152;-69
2021/03/16 08:15:50;;;;;;;2.53;1.55;;;12.40;99.90;;;;;;5057456;28;20508;-69
2021/03/16 08:18:30;;;;;;;1.60;1.50;;;12.40;99.90;;;;;;5057094;28;20028;-69
2021/03/16 08:21:12;;;;;;;3.38;1.55;;;12.20;99.90;;;;;;5055773;28;20172;-69
2021/03/16 08:23:39;;;;;;;2.10;1.90;;;12.00;99.90;;;;;;5055707;28;20025;-69
2021/03/16 08:26:07;;;;;;;1.98;1.75;;;12.00;99.90;;;;;;5057039;28;20021;-69
2021/03/16 08:28:34;;;;;;;2.08;1.88;;;12.00;99.90;;;;;;5057108;28;20078;-69
2021/03/16 08:31:00;;;;;;;1.75;1.25;;;12.10;99.90;;;;;;5050717;28;20082;-69
2021/03/16 08:33:28;;;;;;;1.42;1.33;;;12.20;99.90;;;;;;5058072;28;20032;-69
2021/03/16 08:35:56;;;;;;;2.38;1.50;;;12.00;99.90;;;;;;5056740;28;20029;-69
2021/03/16 08:38:32;;;;;;;2.42;1.30;;;12.00;99.90;;;;;;5060719;28;20532;-69
2021/03/16 08:41:11;;;;;;;1.80;1.70;;;12.10;99.90;;;;;;5060924;28;20047;-69
2021/03/16 08:43:37;;;;;;;1.60;1.50;;;12.20;99.90;;;;;;5061310;28;20416;-69
2021/03/16 08:46:04;;;;;;;3.33;2.20;;;12.40;99.90;;;;;;5061138;28;20104;-69
2021/03/16 08:48:33;;;;;;;2.55;1.70;;;12.40;99.90;;;;;;5061112;28;20112;-69
2021/03/16 08:50:59;;;;;;;1.80;1.70;;;12.60;99.90;;;;;;5059498;28;20120;-69
2021/03/16 08:53:25;;;;;;;1.65;1.35;;;12.60;99.90;;;;;;5059568;28;20483;-69
2021/03/16 08:55:53;;;;;;;1.05;1.05;;;12.70;99.90;;;;;;5060723;28;20061;-69
2021/03/16 08:58:20;;;;;;;1.27;1.17;;;12.80;99.90;;;;;;5059692;28;20029;-69
2021/03/16 09:00:46;;;;;;;1.20;1.10;;;12.70;99.90;;;;;;5059037;28;20417;-69
2021/03/16 09:03:13;;;;;;;3.25;1.75;;;12.80;99.90;;;;;;5060857;28;20492;-69
2021/03/16 09:05:40;;;;;;;2.20;1.65;;;12.80;99.90;;;;;;5060446;28;20040;-69
2021/03/16 09:08:07;;;;;;;2.03;1.50;;;12.60;99.90;;;;;;5059287;28;20123;-69
2021/03/16 09:10:33;;;;;;;2.22;1.92;;;12.70;99.90;;;;;;5060344;28;20104;-69
2021/03/16 09:13:00;;;;;;;2.38;1.67;;;12.70;99.90;;;;;;5060634;28;20106;-69
2021/03/16 09:15:35;;;;;;;1.98;1.50;;;12.90;99.90;;;;;;5058997;28;20025;-69
2021/03/16 09:18:04;;;;;;;2.20;1.40;;;13.30;99.90;;;;;;5060754;28;20021;-69
2021/03/16 09:20:35;;;;;;;2.70;1.70;;;13.20;99.90;;;;;;5060564;28;20036;-69
2021/03/16 09:23:05;;;;;;;1.90;1.80;;;13.40;99.90;;;;;;5060299;28;20071;-69
2021/03/16 09:25:40;;;;;;;1.50;1.40;;;13.90;99.90;;;;;;5059993;28;20024;-69
2021/03/16 09:28:08;;;;;;;1.30;1.20;;;14.50;99.90;;;;;;5060248;28;20065;-69
2021/03/16 09:30:49;;;;;;;6.63;1.52;;;14.80;99.90;;;;;;5059975;28;20108;-69
2021/03/16 09:33:19;;;;;;;1.88;1.67;;;15.10;99.90;;;;;;5060011;28;20028;-69
2021/03/16 09:35:53;;;;;;;2.30;1.92;;;14.70;99.90;;;;;;5056145;28;20104;-69
2021/03/16 09:38:19;;;;;;;4.07;2.30;;;14.40;99.90;;;;;;5059791;28;20021;-69
2021/03/16 09:40:45;;;;;;;2.38;1.67;;;14.30;99.90;;;;;;5059749;28;20488;-69
2021/03/16 09:43:36;;;;;;;1.65;1.55;;;14.50;99.90;;;;;;5058591;28;20029;-69
2021/03/16 09:46:10;;;;;;;1.92;1.75;;;14.60;99.90;;;;;;5059278;28;20094;-69
2021/03/16 09:48:39;;;;;;;2.28;1.70;;;14.50;99.90;;;;;;5060090;28;20035;-69
2021/03/16 09:51:18;;;;;;;2.85;1.73;;;14.80;99.90;;;;;;5059342;28;20396;-69
2021/03/16 09:53:56;;;;;;;1.55;1.45;;;16.10;99.90;;;;;;5059573;28;20447;-69
2021/03/16 09:56:27;;;;;;;1.40;1.30;;;17.00;99.90;;;;;;5059648;28;20021;-69
2021/03/16 09:58:59;;;;;;;2.95;1.58;;;17.30;99.90;;;;;;5059574;28;20045;-69
2021/03/16 10:01:25;;;;;;;2.78;1.50;;;16.90;99.90;;;;;;5058445;28;20037;-69
2021/03/16 10:04:01;;;;;;;3.25;2.00;;;16.50;99.90;;;;;;5059445;28;20052;-69
2021/03/16 10:06:37;;;;;;;1.50;1.40;;;16.00;99.90;;;;;;5059363;28;20025;-69
2021/03/16 10:09:20;;;;;;;1.40;1.30;;;15.90;99.90;;;;;;5059401;28;20025;-69
2021/03/16 10:11:47;;;;;;;3.45;1.70;;;15.90;99.90;;;;;;5059495;28;20033;-69
2021/03/16 10:14:24;;;;;;;1.98;1.17;;;16.20;99.90;;;;;;5059682;28;20021;-69
2021/03/16 10:16:56;;;;;;;2.17;1.98;;;16.10;99.90;;;;;;5059359;28;20079;-69
2021/03/16 10:19:24;;;;;;;1.48;1.38;;;16.30;99.90;;;;;;5059404;28;20025;-69
2021/03/16 10:21:50;;;;;;;1.38;1.27;;;16.40;99.90;;;;;;5058875;28;20067;-69
2021/03/16 10:24:24;;;;;;;3.47;1.50;;;16.40;99.90;;;;;;5058876;28;20021;-69
2021/03/16 10:27:02;;;;;;;1.85;1.60;;;16.20;99.90;;;;;;5058946;28;20075;-69
2021/03/16 10:29:28;;;;;;;1.45;1.33;;;16.00;99.90;;;;;;5058995;28;20071;-69
2021/03/16 10:31:54;;;;;;;1.77;1.48;;;15.90;99.90;;;;;;5059019;28;20527;-69
2021/03/16 10:34:20;;;;;;;1.25;1.15;;;15.90;99.90;;;;;;5053759;28;20025;-69
2021/03/16 10:36:46;;;;;;;1.58;1.40;;;15.80;99.90;;;;;;5057554;28;20396;-69
2021/03/16 10:39:12;;;;;;;1.40;1.05;;;15.60;99.90;;;;;;5058387;28;20096;-69
2021/03/16 10:41:38;;;;;;;1.63;1.52;;;15.80;99.90;;;;;;5057686;28;20025;-69
2021/03/16 10:44:04;;;;;;;1.70;1.42;;;16.20;99.90;;;;;;5058768;28;20025;-69
2021/03/16 10:46:30;;;;;;;1.38;1.27;;;16.40;99.90;;;;;;5057719;28;20087;-69
2021/03/16 10:48:56;;;;;;;0.98;0.98;;;16.50;99.90;;;;;;5057405;28;20025;-69
2021/03/16 10:51:22;;;;;;;2.30;1.58;;;16.40;99.90;;;;;;5058670;28;20079;-69
2021/03/16 10:53:48;;;;;;;1.90;1.30;;;16.60;99.90;;;;;;5058426;28;20420;-69
2021/03/16 10:56:14;;;;;;;2.13;1.40;;;16.60;99.90;;;;;;5058541;28;20035;-69
2021/03/16 10:58:40;;;;;;;1.98;1.83;;;16.40;99.90;;;;;;5058524;28;20036;-70
2021/03/16 11:01:06;;;;;;;2.08;1.42;;;16.40;99.90;;;;;;5058516;28;20029;-69
2021/03/16 11:03:33;;;;;;;1.70;1.55;;;16.80;99.90;;;;;;5058269;28;20104;-69
2021/03/16 11:05:59;;;;;;;3.85;1.60;;;17.20;99.90;;;;;;5057217;28;20025;-69
2021/03/16 11:08:25;;;;;;;2.22;1.55;;;18.00;99.90;;;;;;5057905;28;20031;-69
2021/03/16 11:10:51;;;;;;;1.52;1.42;;;18.10;99.90;;;;;;5057187;28;20447;-69
2021/03/16 11:13:17;;;;;;;2.50;1.67;;;17.70;99.90;;;;;;5056785;28;20031;-69
2021/03/16 11:15:43;;;;;;;1.65;1.55;;;17.20;99.90;;;;;;5058369;28;20029;-69
2021/03/16 11:18:09;;;;;;;1.73;1.63;;;16.50;99.90;;;;;;5058207;28;20080;-69
2021/03/16 11:20:35;;;;;;;2.63;1.52;;;16.20;99.90;;;;;;5057848;28;20104;-69
2021/03/16 11:23:00;;;;;;;1.83;1.67;;;15.80;99.90;;;;;;5057274;28;20032;-69
2021/03/16 11:25:26;;;;;;;2.88;1.90;;;15.70;99.90;;;;;;5056612;28;20028;-69
2021/03/16 11:27:52;;;;;;;1.60;1.50;;;15.50;99.90;;;;;;5057862;28;20024;-68
2021/03/16 11:30:18;;;;;;;1.75;1.63;;;15.50;99.90;;;;;;5057742;28;20033;-69
2021/03/16 11:32:44;;;;;;;1.65;1.55;;;15.50;99.90;;;;;;5057896;28;20056;-69
2021/03/16 11:35:10;;;;;;;2.47;1.65;;;15.60;99.90;;;;;;5054576;28;20036;-69
2021/03/16 11:37:37;;;;;;;2.05;1.95;;;15.60;99.90;;;;;;5056443;28;20021;-69
2021/03/16 11:40:03;;;;;;;1.50;1.40;;;15.60;99.90;;;;;;5056311;28;20079;-69
2021/03/16 11:42:29;;;;;;;4.82;1.50;;;15.70;99.90;;;;;;5056484;28;20013;-69
2021/03/16 11:44:55;;;;;;;1.65;1.55;;;16.10;99.90;;;;;;5058088;28;20508;-69
2021/03/16 11:47:22;;;;;;;1.50;1.40;;;16.30;99.90;;;;;;5057521;28;20046;-69
2021/03/16 11:49:48;;;;;;;2.17;1.50;;;16.60;99.90;;;;;;5057683;28;20025;-69
2021/03/16 11:52:13;;;;;;;1.42;1.33;;;17.80;99.90;;;;;;5057395;28;20023;-69
2021/03/16 11:54:39;;;;;;;1.45;1.35;;;18.70;99.90;;;;;;5057517;28;20090;-69
2021/03/16 11:57:06;;;;;;;2.55;1.67;;;18.40;99.90;;;;;;5057361;28;20024;-69
2021/03/16 11:59:33;;;;;;;0.95;0.90;;;17.90;99.90;;;;;;5056219;28;20048;-69
2021/03/16 12:01:59;;;;;;;1.67;1.10;;;17.90;99.90;;;;;;5055872;28;20031;-69
2021/03/16 12:04:25;;;;;;;1.10;1.00;;;18.10;99.90;;;;;;5056411;28;20116;-69
2021/03/16 12:06:52;;;;;;;6.18;1.40;;;18.00;99.90;;;;;;5057082;28;20025;-69
2021/03/16 12:09:18;;;;;;;1.77;1.10;;;17.80;99.90;;;;;;5055925;28;20021;-69
2021/03/16 12:11:44;;;;;;;1.77;1.10;;;17.90;99.90;;;;;;5057438;28;20029;-69
2021/03/16 12:14:09;;;;;;;0.98;0.88;;;17.70;99.90;;;;;;5056303;28;20029;-69
2021/03/16 12:16:35;;;;;;;1.40;1.00;;;17.60;99.90;;;;;;5057231;28;20025;-69
2021/03/16 12:19:01;;;;;;;1.88;1.15;;;17.60;99.90;;;;;;5057572;28;20032;-69
2021/03/16 12:21:27;;;;;;;4.32;1.23;;;17.80;99.90;;;;;;5056868;28;20063;-69
2021/03/16 12:23:53;;;;;;;1.10;1.02;;;17.90;99.90;;;;;;5056954;28;20074;-68
2021/03/16 12:26:19;;;;;;;1.45;1.30;;;18.00;99.90;;;;;;5057146;28;20017;-69
2021/03/16 12:28:45;;;;;;;1.38;1.27;;;17.80;99.90;;;;;;5057028;28;20516;-69
2021/03/16 12:31:11;;;;;;;1.27;1.17;;;17.60;99.90;;;;;;5057062;28;20449;-69
2021/03/16 12:33:36;;;;;;;1.48;1.20;;;17.40;99.90;;;;;;5057259;28;20040;-69
2021/03/16 12:36:03;;;;;;;2.53;1.40;;;17.50;99.90;;;;;;5053032;28;20029;-69
2021/03/16 12:38:30;;;;;;;1.10;1.00;;;17.90;99.90;;;;;;5056830;28;20025;-69
2021/03/16 12:40:56;;;;;;;4.82;1.20;;;18.10;99.90;;;;;;5056836;28;20025;-69
2021/03/16 12:43:22;;;;;;;2.13;1.00;;;18.40;99.90;;;;;;5057067;28;20021;-69
2021/03/16 12:45:48;;;;;;;1.88;1.20;;;18.20;99.90;;;;;;5057259;28;20082;-69
2021/03/16 12:48:14;;;;;;;1.40;1.30;;;18.50;99.90;;;;;;5055702;28;20029;-69
2021/03/16 12:50:40;;;;;;;1.60;0.93;;;18.90;99.90;;;;;;5055600;28;20489;-69
2021/03/16 12:53:06;;;;;;;0.75;0.75;;;19.50;99.90;;;;;;5056652;28;20032;-69